Weather at Bilbeis 2 Airfield

Public forecast

Using degrees Celsius for public forecast. Weather courtesy of forecast.io.

Closest aviation weather report (METAR) to Bilbeis 2 Airfield

Report is more than 6 hours old.

Closest report is Capital International Airport, 22.5 nm (41.6 km) SSE.

2024/06/18 17:00 (retrieved 11 hours ago)

HECP 181700Z 35011KT CAVOK 31/14 Q1010 NOSIG

Closest aviation forecast (TAF) to Bilbeis 2 Airfield

Forecast is more than 12 hours old.

Closest forecast is El Jora Airport, 133.6 nm (247.5 km) ENE.

2024/06/18 12:00 (retrieved 16 hours ago)

TAF HEGR 181100Z 1812/1918 34008KT 9999 FEW025